createdAt,value
2018-12-04T00:00:28.114Z,13.37
2018-12-04T00:02:55.331Z,13.28
2018-12-04T00:05:22.577Z,13.12
2018-12-04T00:07:49.770Z,13.00
2018-12-04T00:10:16.981Z,12.80
2018-12-04T00:12:44.190Z,12.66
2018-12-04T00:15:11.403Z,12.60
2018-12-04T00:17:38.693Z,12.60
2018-12-04T00:20:06.317Z,12.51
2018-12-04T00:22:33.568Z,12.52
2018-12-04T00:25:00.791Z,12.56
2018-12-04T00:27:28.018Z,12.54
2018-12-04T00:29:55.238Z,12.55
2018-12-04T00:32:22.457Z,12.41
2018-12-04T00:34:49.669Z,12.26
2018-12-04T00:37:17.287Z,12.11
2018-12-04T00:39:44.588Z,11.93
2018-12-04T00:42:11.858Z,11.89
2018-12-04T00:44:39.082Z,11.83
2018-12-04T00:47:06.365Z,11.80
2018-12-04T00:49:33.588Z,11.72
2018-12-04T00:52:00.781Z,11.63
2018-12-04T00:54:28.081Z,11.55
2018-12-04T00:56:55.277Z,11.52
2018-12-04T00:59:22.478Z,11.47
2018-12-04T01:01:49.704Z,11.32
2018-12-04T01:04:17.018Z,11.26
2018-12-04T01:06:44.235Z,11.23
2018-12-04T01:09:11.518Z,11.20
2018-12-04T01:11:38.743Z,11.16
2018-12-04T01:14:05.967Z,10.96
2018-12-04T01:16:33.300Z,10.91
2018-12-04T01:19:00.601Z,10.93
2018-12-04T01:21:27.814Z,10.70
2018-12-04T01:23:55.066Z,10.53
2018-12-04T01:26:22.273Z,10.41
2018-12-04T01:28:49.477Z,10.50
2018-12-04T01:31:16.724Z,10.50
2018-12-04T01:33:43.966Z,10.54
2018-12-04T01:36:11.182Z,10.63
2018-12-04T01:38:38.383Z,10.65
2018-12-04T01:41:05.621Z,10.63
2018-12-04T01:43:32.846Z,10.65
2018-12-04T01:46:00.038Z,10.79
2018-12-04T01:48:27.261Z,10.86
2018-12-04T01:50:54.521Z,10.94
2018-12-04T01:53:21.741Z,11.13
2018-12-04T01:55:48.946Z,11.28
2018-12-04T01:58:16.231Z,11.20
2018-12-04T02:00:43.570Z,11.25
2018-12-04T02:03:10.774Z,11.24
2018-12-04T02:05:38.021Z,11.14
2018-12-04T02:08:05.221Z,10.99
2018-12-04T02:10:32.454Z,10.90
2018-12-04T02:12:59.725Z,10.78
2018-12-04T02:15:26.994Z,10.68
2018-12-04T02:17:54.245Z,10.62
2018-12-04T02:20:21.494Z,10.57
2018-12-04T02:22:48.697Z,10.65
2018-12-04T02:25:15.913Z,10.59
2018-12-04T02:27:43.197Z,10.49
2018-12-04T02:30:10.447Z,10.54
2018-12-04T02:32:37.774Z,10.56
2018-12-04T02:35:05.062Z,10.58
2018-12-04T02:37:32.280Z,10.66
2018-12-04T02:39:59.511Z,10.66
2018-12-04T02:42:26.716Z,10.64
2018-12-04T02:44:53.913Z,10.66
2018-12-04T02:47:21.205Z,10.67
2018-12-04T02:49:48.410Z,10.60
2018-12-04T02:52:15.696Z,10.50
2018-12-04T02:54:42.916Z,10.49
2018-12-04T02:57:10.167Z,10.44
2018-12-04T02:59:37.466Z,10.51
2018-12-04T03:02:04.702Z,10.55
2018-12-04T03:04:31.982Z,10.52
2018-12-04T03:06:59.181Z,10.40
2018-12-04T03:09:26.493Z,10.30
2018-12-04T03:11:53.751Z,10.18
2018-12-04T03:14:21.030Z,10.13
2018-12-04T03:16:48.225Z,10.16
2018-12-04T03:19:15.449Z,10.15
2018-12-04T03:21:42.672Z,10.21
2018-12-04T03:24:09.903Z,10.36
2018-12-04T03:26:37.126Z,10.50
2018-12-04T03:29:04.330Z,10.52
2018-12-04T03:31:31.614Z,10.68
2018-12-04T03:33:58.838Z,10.66
2018-12-04T03:36:26.119Z,10.71
2018-12-04T03:38:53.395Z,10.61
2018-12-04T03:41:20.646Z,10.64
2018-12-04T03:43:47.869Z,10.63
2018-12-04T03:46:15.114Z,10.44
2018-12-04T03:48:42.352Z,10.29
2018-12-04T03:51:09.654Z,10.30
2018-12-04T03:53:36.910Z,10.40
2018-12-04T03:56:04.297Z,10.26
2018-12-04T03:58:31.497Z,10.28
2018-12-04T04:00:58.702Z,10.32
2018-12-04T04:03:25.926Z,10.44
2018-12-04T04:05:53.209Z,10.40
2018-12-04T04:08:20.447Z,10.32
2018-12-04T04:10:47.754Z,10.35
2018-12-04T04:13:14.981Z,10.36
2018-12-04T04:15:42.273Z,10.46
2018-12-04T04:18:09.466Z,10.55
2018-12-04T04:20:36.768Z,10.62
2018-12-04T04:23:04.078Z,10.32
2018-12-04T04:25:31.286Z,10.37
2018-12-04T04:27:58.515Z,10.26
2018-12-04T04:30:25.722Z,10.34
2018-12-04T04:32:52.954Z,10.40
2018-12-04T04:35:20.183Z,10.36
2018-12-04T04:37:47.410Z,10.53
2018-12-04T04:40:14.734Z,10.68
2018-12-04T04:42:41.939Z,10.70
2018-12-04T04:45:09.199Z,10.72
2018-12-04T04:47:36.408Z,10.80
2018-12-04T04:50:04.005Z,10.84
2018-12-04T04:52:31.210Z,10.78
2018-12-04T04:54:58.501Z,10.87
2018-12-04T04:57:25.762Z,10.89
2018-12-04T04:59:52.983Z,10.88
2018-12-04T05:02:20.244Z,10.79
2018-12-04T05:04:47.481Z,10.83
2018-12-04T05:07:14.714Z,10.81
2018-12-04T05:09:41.955Z,10.74
2018-12-04T05:12:09.170Z,10.67
2018-12-04T05:14:36.394Z,10.78
2018-12-04T05:17:03.654Z,10.79
2018-12-04T05:19:30.870Z,10.63
2018-12-04T05:21:58.122Z,10.60
2018-12-04T05:24:25.367Z,10.72
2018-12-04T05:26:52.629Z,10.71
2018-12-04T05:29:19.830Z,10.70
2018-12-04T05:31:47.054Z,10.61
2018-12-04T05:34:14.314Z,10.75
2018-12-04T05:36:41.600Z,10.62
2018-12-04T05:39:08.822Z,10.63
2018-12-04T05:41:36.050Z,10.74
2018-12-04T05:44:03.290Z,10.77
2018-12-04T05:46:30.577Z,10.76
2018-12-04T05:48:57.778Z,10.73
2018-12-04T05:51:25.043Z,10.68
2018-12-04T05:53:52.330Z,10.65
2018-12-04T05:56:19.632Z,10.57
2018-12-04T05:58:46.966Z,10.56
2018-12-04T06:01:14.183Z,10.59
2018-12-04T06:03:41.446Z,10.64
2018-12-04T06:06:08.654Z,10.54
2018-12-04T06:08:35.861Z,10.53
2018-12-04T06:11:03.110Z,10.52
2018-12-04T06:13:30.374Z,10.56
2018-12-04T06:15:57.584Z,10.56
2018-12-04T06:18:24.797Z,10.55
2018-12-04T06:20:52.017Z,10.51
2018-12-04T06:23:19.238Z,10.40
2018-12-04T06:25:46.441Z,10.43
2018-12-04T06:28:13.673Z,10.50
2018-12-04T06:30:40.878Z,10.39
2018-12-04T06:33:08.186Z,10.42
2018-12-04T06:35:35.390Z,10.44
2018-12-04T06:38:02.605Z,10.42
2018-12-04T06:40:29.890Z,10.30
2018-12-04T06:42:57.112Z,10.38
2018-12-04T06:45:24.355Z,10.39
2018-12-04T06:47:51.600Z,10.44
2018-12-04T06:50:18.817Z,10.23
2018-12-04T06:52:46.041Z,10.20
2018-12-04T06:55:13.281Z,9.91
2018-12-04T06:57:40.573Z,9.80
2018-12-04T07:00:08.153Z,9.72
2018-12-04T07:02:35.437Z,9.39
2018-12-04T07:05:02.731Z,9.42
2018-12-04T07:07:30.008Z,9.48
2018-12-04T07:09:57.353Z,9.56
2018-12-04T07:12:24.555Z,9.65
2018-12-04T07:14:51.750Z,9.63
2018-12-04T07:17:18.971Z,9.47
2018-12-04T07:19:46.202Z,9.41
2018-12-04T07:22:13.404Z,9.42
2018-12-04T07:24:40.602Z,9.49
2018-12-04T07:27:07.817Z,9.47
2018-12-04T07:29:35.115Z,9.49
2018-12-04T07:32:02.329Z,9.55
2018-12-04T07:34:29.552Z,9.24
2018-12-04T07:36:56.766Z,9.19
2018-12-04T07:39:23.991Z,9.28
2018-12-04T07:41:51.228Z,9.38
2018-12-04T07:44:18.435Z,9.41
2018-12-04T07:46:45.725Z,9.44
2018-12-04T07:49:12.957Z,9.51
2018-12-04T07:51:40.283Z,9.50
2018-12-04T07:54:07.499Z,9.50
2018-12-04T07:56:34.803Z,9.57
2018-12-04T07:59:02.049Z,9.65
2018-12-04T08:01:29.334Z,9.52
2018-12-04T08:03:56.591Z,9.54
2018-12-04T08:06:23.894Z,9.60
2018-12-04T08:08:51.137Z,9.50
2018-12-04T08:11:18.406Z,9.25
2018-12-04T08:13:45.637Z,9.39
2018-12-04T08:16:12.922Z,9.74
2018-12-04T08:18:40.136Z,9.74
2018-12-04T08:21:07.399Z,10.10
2018-12-04T08:23:34.653Z,10.43
2018-12-04T08:26:01.861Z,10.68
2018-12-04T08:28:29.077Z,10.73
2018-12-04T08:30:56.277Z,10.86
2018-12-04T08:33:23.494Z,10.83
2018-12-04T08:35:50.704Z,10.86
2018-12-04T08:38:17.956Z,10.99
2018-12-04T08:40:45.173Z,11.51
2018-12-04T08:43:12.494Z,11.63
2018-12-04T08:45:39.722Z,11.73
2018-12-04T08:48:07.251Z,11.53
2018-12-04T08:50:34.478Z,11.49
2018-12-04T08:53:01.695Z,11.59
2018-12-04T08:55:28.902Z,11.64
2018-12-04T08:57:56.125Z,11.76
2018-12-04T09:00:23.470Z,11.73
2018-12-04T09:02:50.749Z,11.79
2018-12-04T09:05:18.083Z,11.77
2018-12-04T09:07:45.301Z,11.71
2018-12-04T09:10:12.625Z,11.80
2018-12-04T09:12:39.833Z,11.59
2018-12-04T09:15:07.166Z,11.48
2018-12-04T09:17:34.412Z,11.41
2018-12-04T09:20:01.645Z,11.33
2018-12-04T09:22:28.930Z,11.47
2018-12-04T09:24:56.231Z,11.44
2018-12-04T09:27:23.582Z,11.34
2018-12-04T09:29:50.858Z,11.49
2018-12-04T09:32:18.169Z,11.57
2018-12-04T09:34:45.374Z,11.66
2018-12-04T09:37:12.652Z,11.82
2018-12-04T09:39:39.941Z,11.93
2018-12-04T09:42:07.467Z,12.00
2018-12-04T09:44:34.665Z,12.07
2018-12-04T09:47:01.866Z,12.19
2018-12-04T09:49:29.139Z,12.11
2018-12-04T09:51:56.344Z,12.12
2018-12-04T09:54:23.541Z,12.13
2018-12-04T09:56:50.762Z,12.02
2018-12-04T09:59:18.030Z,11.91
2018-12-04T10:01:45.667Z,11.92
2018-12-04T10:04:12.903Z,11.71
2018-12-04T10:06:40.101Z,11.94
2018-12-04T10:09:07.802Z,12.35
2018-12-04T10:11:35.022Z,13.13
2018-12-04T10:14:02.381Z,12.82
2018-12-04T10:16:29.894Z,12.61
2018-12-04T10:18:57.099Z,12.35
2018-12-04T10:21:24.360Z,12.40
2018-12-04T10:23:51.578Z,12.45
2018-12-04T10:26:18.830Z,12.34
2018-12-04T10:28:46.026Z,12.52
2018-12-04T10:31:13.237Z,12.49
2018-12-04T10:33:40.613Z,13.04
2018-12-04T10:36:08.974Z,13.53
2018-12-04T10:38:36.450Z,13.24
2018-12-04T10:41:03.761Z,13.07
2018-12-04T10:43:30.994Z,12.89
2018-12-04T10:45:58.279Z,12.51
2018-12-04T10:48:25.478Z,12.51
2018-12-04T10:50:52.706Z,12.30
2018-12-04T10:53:19.954Z,12.11
2018-12-04T10:55:47.178Z,12.08
2018-12-04T10:58:14.397Z,11.97
2018-12-04T11:00:47.353Z,11.93
2018-12-04T11:03:14.653Z,11.94
2018-12-04T11:05:41.934Z,11.68
2018-12-04T11:08:09.185Z,11.35
2018-12-04T11:10:36.419Z,11.44
2018-12-04T11:13:03.694Z,11.50
2018-12-04T11:15:31.031Z,11.55
2018-12-04T11:17:58.270Z,11.57
2018-12-04T11:20:25.509Z,11.65
2018-12-04T11:22:52.757Z,11.48
2018-12-04T11:25:19.960Z,11.45
2018-12-04T11:27:47.270Z,11.58
2018-12-04T11:30:14.465Z,11.63
2018-12-04T11:32:41.669Z,11.51
2018-12-04T11:35:09.006Z,11.28
2018-12-04T11:37:36.274Z,11.37
2018-12-04T11:40:04.651Z,11.15
2018-12-04T11:42:31.862Z,11.35
2018-12-04T11:44:59.067Z,11.44
2018-12-04T11:47:26.314Z,11.41
2018-12-04T11:49:53.538Z,11.11
2018-12-04T11:52:20.738Z,11.10
2018-12-04T11:54:47.978Z,11.06
2018-12-04T11:57:15.186Z,11.31
2018-12-04T11:59:42.452Z,11.28
2018-12-04T12:02:10.912Z,11.33
2018-12-04T12:04:38.791Z,11.34
2018-12-04T12:07:05.991Z,11.10
2018-12-04T12:09:33.233Z,11.00
2018-12-04T12:12:00.487Z,10.97
2018-12-04T12:14:27.687Z,10.74
2018-12-04T12:16:54.903Z,10.52
2018-12-04T12:19:22.117Z,10.57
2018-12-04T12:21:49.345Z,10.47
2018-12-04T12:24:16.537Z,10.56
2018-12-04T12:26:43.765Z,10.85
2018-12-04T12:29:11.009Z,10.78
2018-12-04T12:31:38.229Z,11.06
2018-12-04T12:34:05.478Z,11.33
2018-12-04T12:36:32.774Z,11.57
2018-12-04T12:38:59.997Z,12.00
2018-12-04T12:41:27.233Z,11.71
2018-12-04T12:43:54.537Z,11.64
2018-12-04T12:46:21.747Z,11.67
2018-12-04T12:48:48.965Z,12.07
2018-12-04T12:51:16.238Z,12.07
2018-12-04T12:53:43.549Z,11.87
2018-12-04T12:56:10.810Z,11.86
2018-12-04T12:58:38.123Z,11.66
2018-12-04T13:01:05.439Z,11.70
2018-12-04T13:03:32.661Z,11.69
2018-12-04T13:05:59.902Z,11.41
2018-12-04T13:08:27.137Z,11.24
2018-12-04T13:10:54.349Z,11.42
2018-12-04T13:13:21.559Z,11.39
2018-12-04T13:15:48.864Z,11.22
2018-12-04T13:18:16.152Z,11.32
2018-12-04T13:20:43.427Z,11.07
2018-12-04T13:23:10.656Z,11.08
2018-12-04T13:25:37.931Z,11.06
2018-12-04T13:28:05.226Z,11.04
2018-12-04T13:30:32.562Z,10.90
2018-12-04T13:32:59.896Z,10.87
2018-12-04T13:35:27.232Z,10.96
2018-12-04T13:37:54.456Z,10.96
2018-12-04T13:40:21.750Z,10.96
2018-12-04T13:42:48.999Z,10.91
2018-12-04T13:45:16.232Z,10.86
2018-12-04T13:47:43.579Z,11.03
2018-12-04T13:50:10.918Z,10.89
2018-12-04T13:52:38.233Z,10.69
2018-12-04T13:55:05.666Z,10.66
2018-12-04T13:57:32.941Z,10.64
2018-12-04T14:00:00.223Z,10.59
2018-12-04T14:02:27.509Z,10.22
2018-12-04T14:04:54.795Z,10.29
2018-12-04T14:07:22.138Z,10.30
2018-12-04T14:09:49.440Z,10.17
2018-12-04T14:12:16.734Z,10.18
2018-12-04T14:14:43.977Z,10.13
2018-12-04T14:17:11.326Z,10.08
2018-12-04T14:19:38.548Z,10.14
2018-12-04T14:22:05.861Z,10.05
2018-12-04T14:24:33.124Z,10.00
2018-12-04T14:27:00.429Z,10.04
2018-12-04T14:29:27.694Z,10.07
2018-12-04T14:31:55.022Z,10.00
2018-12-04T14:34:22.285Z,10.14
2018-12-04T14:36:49.560Z,10.12
2018-12-04T14:39:16.916Z,10.05
2018-12-04T14:41:44.175Z,10.06
2018-12-04T14:44:11.399Z,9.97
2018-12-04T14:46:38.715Z,9.96
2018-12-04T14:49:06.027Z,9.88
2018-12-04T14:51:33.266Z,9.88
2018-12-04T14:54:00.625Z,9.82
2018-12-04T14:56:27.929Z,9.86
2018-12-04T14:58:55.245Z,10.00
2018-12-04T15:01:22.578Z,10.08
2018-12-04T15:03:50.148Z,10.14
2018-12-04T15:06:17.437Z,10.23
2018-12-04T15:08:44.651Z,10.24
2018-12-04T15:11:11.971Z,10.35
2018-12-04T15:13:39.257Z,10.36
2018-12-04T15:16:06.655Z,10.40
2018-12-04T15:18:33.971Z,10.41
2018-12-04T15:21:01.250Z,10.42
2018-12-04T15:23:28.553Z,10.41
2018-12-04T15:25:55.892Z,10.40
2018-12-04T15:28:23.131Z,10.31
2018-12-04T15:30:50.428Z,10.17
2018-12-04T15:33:17.747Z,10.06
2018-12-04T15:35:44.949Z,9.94
2018-12-04T15:38:12.242Z,9.81
2018-12-04T15:40:39.485Z,9.68
2018-12-04T15:43:06.757Z,9.55
2018-12-04T15:45:33.962Z,9.47
2018-12-04T15:48:01.190Z,9.38
2018-12-04T15:50:28.497Z,9.27
2018-12-04T15:52:55.726Z,9.19
2018-12-04T15:55:23.039Z,9.08
2018-12-04T15:57:50.345Z,8.98
2018-12-04T16:00:17.545Z,8.88
2018-12-04T16:02:44.779Z,8.79
2018-12-04T16:05:12.026Z,8.70
2018-12-04T16:07:39.249Z,8.62
2018-12-04T16:10:08.906Z,8.55
2018-12-04T16:12:36.120Z,8.54
2018-12-04T16:15:03.437Z,8.36
2018-12-04T16:17:30.645Z,8.35
2018-12-04T16:19:57.849Z,8.18
2018-12-04T16:22:25.155Z,8.16
2018-12-04T16:24:52.438Z,8.09
2018-12-04T16:27:19.663Z,8.09
2018-12-04T16:29:46.956Z,8.13
2018-12-04T16:32:14.181Z,8.14
2018-12-04T16:34:41.385Z,8.17
2018-12-04T16:37:08.605Z,8.15
2018-12-04T16:39:35.851Z,8.21
2018-12-04T16:42:03.077Z,8.22
2018-12-04T16:44:30.357Z,8.34
2018-12-04T16:46:57.566Z,8.35
2018-12-04T16:49:24.877Z,8.23
2018-12-04T16:51:52.098Z,8.20
2018-12-04T16:54:19.299Z,8.08
2018-12-04T16:56:46.522Z,8.05
2018-12-04T16:59:13.754Z,8.02
2018-12-04T17:01:40.994Z,7.98
2018-12-04T17:04:08.237Z,7.97
2018-12-04T17:06:35.453Z,7.93
2018-12-04T17:09:02.681Z,7.91
2018-12-04T17:11:29.917Z,7.88
2018-12-04T17:13:57.114Z,7.86
2018-12-04T17:16:24.318Z,7.81
2018-12-04T17:18:51.677Z,7.76
2018-12-04T17:21:18.986Z,7.73
2018-12-04T17:23:46.197Z,7.68
2018-12-04T17:26:13.552Z,7.67
2018-12-04T17:28:40.792Z,7.63
2018-12-04T17:31:08.085Z,7.56
2018-12-04T17:33:35.338Z,7.50
2018-12-04T17:36:02.680Z,7.47
2018-12-04T17:38:29.954Z,7.45
2018-12-04T17:40:57.174Z,7.47
2018-12-04T17:43:24.418Z,7.42
2018-12-04T17:45:51.674Z,7.40
2018-12-04T17:48:19.037Z,7.44
2018-12-04T17:50:46.348Z,7.53
2018-12-04T17:53:13.550Z,7.54
2018-12-04T17:55:40.776Z,7.52
2018-12-04T17:58:08.034Z,7.49
2018-12-04T18:00:35.290Z,7.46
2018-12-04T18:03:02.501Z,7.49
2018-12-04T18:05:29.734Z,7.52
2018-12-04T18:07:56.946Z,7.52
2018-12-04T18:10:24.165Z,7.50
2018-12-04T18:12:51.374Z,7.49
2018-12-04T18:15:18.598Z,7.50
2018-12-04T18:17:45.834Z,7.48
2018-12-04T18:20:13.057Z,7.50
2018-12-04T18:22:40.390Z,7.48
2018-12-04T18:25:07.692Z,7.51
2018-12-04T18:27:34.934Z,7.46
2018-12-04T18:30:02.174Z,7.49
2018-12-04T18:32:29.381Z,7.45
2018-12-04T18:34:56.650Z,7.48
2018-12-04T18:37:23.853Z,7.44
2018-12-04T18:39:51.194Z,7.43
2018-12-04T18:42:18.474Z,7.42
2018-12-04T18:44:45.713Z,7.38
2018-12-04T18:47:12.934Z,7.40
2018-12-04T18:49:40.217Z,7.44
2018-12-04T18:52:07.465Z,7.43
2018-12-04T18:54:34.674Z,7.43
2018-12-04T18:57:01.894Z,7.39
2018-12-04T18:59:29.107Z,7.38
2018-12-04T19:01:56.478Z,7.38
2018-12-04T19:04:23.705Z,7.37
2018-12-04T19:06:50.977Z,7.35
2018-12-04T19:09:18.214Z,7.36
2018-12-04T19:11:45.425Z,7.28
2018-12-04T19:14:12.686Z,7.31
2018-12-04T19:16:40.003Z,7.32
2018-12-04T19:19:07.267Z,7.31
2018-12-04T19:24:37.253Z,7.31
2018-12-04T19:27:04.631Z,7.29
2018-12-04T19:29:31.958Z,7.25
2018-12-04T19:31:59.178Z,7.22
2018-12-04T19:34:26.408Z,7.22
2018-12-04T19:36:53.663Z,7.23
2018-12-04T19:39:22.166Z,7.29
2018-12-04T19:41:49.373Z,7.19
2018-12-04T19:44:16.589Z,7.17
2018-12-04T19:46:43.821Z,7.15
2018-12-04T19:49:11.058Z,7.11
2018-12-04T19:51:38.293Z,7.06
2018-12-04T19:54:05.566Z,7.02
2018-12-04T19:56:32.798Z,7.00
2018-12-04T19:59:00.054Z,7.01
2018-12-04T20:01:27.278Z,6.94
2018-12-04T20:03:54.558Z,6.94
2018-12-04T20:06:21.766Z,6.84
2018-12-04T20:08:52.125Z,6.83
2018-12-04T20:11:19.622Z,6.75
2018-12-04T20:13:46.894Z,6.72
2018-12-04T20:16:14.122Z,6.76
2018-12-04T20:18:41.330Z,6.70
2018-12-04T20:21:08.566Z,6.69
2018-12-04T20:23:35.819Z,6.62
2018-12-04T20:26:03.436Z,6.59
2018-12-04T20:28:30.650Z,6.60
2018-12-04T20:30:57.887Z,6.53
2018-12-04T20:33:25.174Z,6.53
2018-12-04T20:35:53.267Z,6.50
2018-12-04T20:38:20.518Z,6.45
2018-12-04T20:40:47.758Z,6.46
2018-12-04T20:43:14.994Z,6.46
2018-12-04T20:45:42.414Z,6.45
2018-12-04T20:48:09.669Z,6.44
2018-12-04T20:50:36.902Z,6.37
2018-12-04T20:53:04.381Z,6.25
2018-12-04T20:55:31.611Z,6.28
2018-12-04T20:57:58.874Z,6.33
2018-12-04T21:00:26.113Z,6.30
2018-12-04T21:02:53.354Z,6.30
2018-12-04T21:05:20.570Z,6.28
2018-12-04T21:07:48.034Z,6.28
2018-12-04T21:10:15.238Z,6.26
2018-12-04T21:12:42.466Z,6.23
2018-12-04T21:15:09.705Z,6.19
2018-12-04T21:17:37.017Z,6.14
2018-12-04T21:20:04.809Z,6.10
2018-12-04T21:22:32.058Z,6.10
2018-12-04T21:24:59.265Z,6.12
2018-12-04T21:27:32.449Z,6.14
2018-12-04T21:30:05.374Z,6.08
2018-12-04T21:32:38.274Z,6.03
2018-12-04T21:35:11.141Z,5.98
2018-12-04T21:37:44.158Z,6.02
2018-12-04T21:40:17.145Z,-135.60
2018-12-04T21:42:50.214Z,-135.60
2018-12-04T21:45:23.070Z,-135.60
2018-12-04T21:47:55.190Z,-135.60
2018-12-04T21:50:22.477Z,-135.60
2018-12-04T21:52:49.710Z,-135.60
2018-12-04T21:55:16.974Z,-135.60
2018-12-04T21:57:44.251Z,-135.60
2018-12-04T22:00:11.591Z,-135.60
2018-12-04T22:02:38.891Z,-135.60
2018-12-04T22:05:06.165Z,-135.60
2018-12-04T22:07:33.438Z,-135.60
2018-12-04T22:10:00.681Z,-135.60
2018-12-04T22:12:27.942Z,-135.60
2018-12-04T22:14:55.173Z,-135.60
2018-12-04T22:17:22.422Z,-135.60
2018-12-04T22:19:49.666Z,-135.60
2018-12-04T22:22:16.985Z,-135.60
2018-12-04T22:24:44.211Z,-135.60
2018-12-04T22:27:11.481Z,-135.60
2018-12-04T22:29:38.724Z,-135.60
2018-12-04T22:32:05.945Z,-135.60
2018-12-04T22:34:33.184Z,-135.60
2018-12-04T22:37:00.406Z,-135.60
2018-12-04T22:39:27.641Z,-135.60
2018-12-04T22:41:54.953Z,-135.60
2018-12-04T22:44:22.174Z,-135.60
2018-12-04T22:46:49.576Z,-135.60
2018-12-04T22:49:16.905Z,-135.60
2018-12-04T22:51:44.199Z,-135.60
2018-12-04T22:54:11.450Z,-135.60
2018-12-04T22:56:38.690Z,-135.60
2018-12-04T22:59:05.932Z,-135.60
2018-12-04T23:01:37.899Z,-135.60
2018-12-04T23:04:06.474Z,-135.60
2018-12-04T23:06:33.722Z,-135.60
2018-12-04T23:09:00.990Z,-135.60
2018-12-04T23:11:28.267Z,-135.60
2018-12-04T23:13:55.521Z,-135.60
2018-12-04T23:16:22.854Z,-135.60
2018-12-04T23:18:50.095Z,-135.60
2018-12-04T23:21:17.364Z,-135.60
2018-12-04T23:23:44.671Z,-135.60
2018-12-04T23:26:11.913Z,-135.60
2018-12-04T23:28:39.192Z,-135.60
2018-12-04T23:31:06.458Z,-135.60
2018-12-04T23:33:33.718Z,-135.60
2018-12-04T23:36:00.948Z,-135.60
2018-12-04T23:38:28.213Z,-135.60
2018-12-04T23:40:55.441Z,-135.60
2018-12-04T23:43:22.665Z,-135.60
2018-12-04T23:45:49.926Z,-135.60
2018-12-04T23:48:17.178Z,-135.60
2018-12-04T23:50:44.425Z,-135.60
2018-12-04T23:53:11.678Z,-135.60
2018-12-04T23:55:38.917Z,-135.60
2018-12-04T23:58:06.239Z,-135.60
